Time;durP1;ratioP1;P1;durP2;ratioP2;P2;SDS_P1;SDS_P2;PMS_P1;PMS_P2;Temp;Humidity;BMP_temperature;BMP_pressure;BME280_temperature;BME280_humidity;BME280_pressure;Samples;Min_cycle;Max_cycle;Signal;HPM_P1;HPM_P2
2023/08/29 00:00:20;;;;;;;1.65;1.45;;;;;;;17.94;67.70;99540.59;10341706;28;20797;-50
2023/08/29 00:05:26;;;;;;;4.25;1.83;;;;;;;17.97;68.02;99545.59;10340465;28;20139;-51
2023/08/29 00:10:28;;;;;;;2.28;1.38;;;;;;;17.97;67.87;99534.81;10333213;28;20148;-50
2023/08/29 00:15:29;;;;;;;1.60;1.50;;;;;;;17.98;67.74;99533.78;10338410;28;20065;-51
2023/08/29 00:20:31;;;;;;;3.17;1.38;;;;;;;17.91;67.64;99527.50;10344134;28;20143;-50
2023/08/29 00:25:32;;;;;;;1.55;1.30;;;;;;;17.95;68.43;99536.84;10341653;28;20163;-49
2023/08/29 00:30:38;;;;;;;1.95;1.70;;;;;;;17.88;67.87;99546.69;10302929;28;20053;-49
2023/08/29 00:35:46;;;;;;;1.65;1.20;;;;;;;17.89;67.41;99553.75;10341648;28;20046;-50
2023/08/29 00:40:49;;;;;;;2.80;1.77;;;;;;;17.91;67.28;99557.13;10318321;28;20807;-50
2023/08/29 00:45:50;;;;;;;1.42;1.17;;;;;;;17.91;67.67;99565.19;10339316;28;20045;-51
2023/08/29 00:50:52;;;;;;;1.80;1.27;;;;;;;17.73;67.60;99575.47;10345202;28;20041;-50
2023/08/29 00:55:55;;;;;;;3.50;1.30;;;;;;;17.92;67.80;99612.59;10348681;28;20046;-50
2023/08/29 01:00:57;;;;;;;2.10;1.40;;;;;;;17.95;67.62;99611.41;10340104;28;20042;-50
2023/08/29 01:05:59;;;;;;;2.10;1.20;;;;;;;17.69;68.21;99599.22;10340179;28;20042;-50
2023/08/29 01:11:16;;;;;;;2.28;1.10;;;;;;;17.90;68.86;99625.44;10328357;28;20058;-50
2023/08/29 01:16:23;;;;;;;2.40;0.93;;;;;;;17.78;67.98;99608.06;10321735;28;20134;-49
2023/08/29 01:21:39;;;;;;;1.63;1.02;;;;;;;17.56;68.77;99624.09;10343534;28;20045;-50
2023/08/29 01:26:44;;;;;;;1.23;1.10;;;;;;;17.63;69.64;99630.41;10340274;28;20670;-49
2023/08/29 01:31:46;;;;;;;2.83;1.60;;;;;;;17.55;70.37;99635.91;10340435;28;20099;-50
2023/08/29 01:36:47;;;;;;;1.63;1.52;;;;;;;17.60;69.81;99621.88;10334121;28;20050;-51
2023/08/29 01:41:49;;;;;;;2.75;1.25;;;;;;;17.49;70.01;99607.03;10330073;28;20058;-50
2023/08/29 01:46:50;;;;;;;1.60;1.33;;;;;;;17.62;69.36;99607.19;10333316;28;20611;-51
2023/08/29 01:51:52;;;;;;;1.73;1.00;;;;;;;17.70;68.67;99592.84;10339685;28;20049;-50
2023/08/29 01:56:55;;;;;;;3.08;1.15;;;;;;;17.70;68.75;99578.53;10325073;28;20123;-50
2023/08/29 02:01:57;;;;;;;1.93;0.80;;;;;;;17.73;68.85;99586.22;10314729;28;20046;-51
2023/08/29 02:06:59;;;;;;;2.88;1.13;;;;;;;17.73;68.37;99583.53;10338537;28;20292;-49
2023/08/29 02:12:00;;;;;;;2.53;1.30;;;;;;;17.70;68.41;99590.16;10321734;28;20751;-50
2023/08/29 02:17:01;;;;;;;3.65;1.00;;;;;;;17.63;68.93;99584.66;10326343;28;20641;-50
2023/08/29 02:22:03;;;;;;;2.92;1.20;;;;;;;17.64;68.89;99582.81;10331146;28;20066;-49
2023/08/29 02:27:05;;;;;;;2.15;0.90;;;;;;;17.51;68.21;99564.63;10340130;28;20669;-50
2023/08/29 02:32:07;;;;;;;1.27;0.90;;;;;;;17.33;69.00;99556.09;10341344;28;20061;-52
2023/08/29 02:37:08;;;;;;;2.38;1.00;;;;;;;17.41;68.84;99550.59;10336207;28;20799;-58
2023/08/29 02:42:10;;;;;;;4.30;1.20;;;;;;;17.41;68.93;99532.59;10341212;28;20042;-49
2023/08/29 02:47:11;;;;;;;2.08;1.05;;;;;;;17.29;69.43;99536.78;10327385;28;20141;-49
2023/08/29 02:52:14;;;;;;;1.48;1.10;;;;;;;17.13;69.35;99527.06;10340502;28;20079;-49
2023/08/29 02:57:16;;;;;;;2.35;1.17;;;;;;;17.13;70.11;99516.28;10342316;28;20042;-50
2023/08/29 03:02:17;;;;;;;1.45;1.00;;;;;;;17.26;70.42;99519.19;10336210;28;20121;-50
2023/08/29 03:07:18;;;;;;;1.30;1.20;;;;;;;17.12;70.75;99520.00;10340973;28;20072;-50
2023/08/29 03:12:20;;;;;;;1.15;1.00;;;;;;;17.19;70.79;99510.19;10342885;28;20144;-55
2023/08/29 03:17:22;;;;;;;2.22;1.40;;;;;;;17.25;70.48;99508.56;10339056;28;20182;-49
2023/08/29 03:22:26;;;;;;;2.78;1.00;;;;;;;17.30;70.18;99509.69;10340279;28;20045;-51
2023/08/29 03:27:28;;;;;;;2.07;1.20;;;;;;;17.24;69.92;99517.69;10333040;28;20060;-50
2023/08/29 03:32:31;;;;;;;0.95;0.95;;;;;;;17.26;70.29;99515.63;10331115;28;20065;-50
2023/08/29 03:37:34;;;;;;;1.05;0.73;;;;;;;17.28;71.30;99514.44;10346721;28;20680;-49
2023/08/29 03:42:35;;;;;;;2.35;1.45;;;;;;;17.19;70.33;99509.31;10351182;28;20168;-48
2023/08/29 03:47:38;;;;;;;2.00;1.20;;;;;;;17.31;70.45;99514.06;10351310;28;20050;-49
2023/08/29 03:52:40;;;;;;;1.92;1.50;;;;;;;17.36;70.48;99515.38;10345897;28;20064;-50
2023/08/29 03:57:41;;;;;;;1.52;1.10;;;;;;;17.24;70.51;99517.69;10347232;28;20069;-49
2023/08/29 04:02:43;;;;;;;3.90;1.00;;;;;;;17.18;71.49;99513.88;10347101;28;20045;-50
2023/08/29 04:07:44;;;;;;;3.92;0.95;;;;;;;17.19;71.04;99514.69;10329750;28;20265;-50
2023/08/29 04:12:46;;;;;;;1.98;1.05;;;;;;;17.30;70.12;99519.63;10347134;28;20156;-50
2023/08/29 04:17:47;;;;;;;2.17;1.40;;;;;;;17.22;70.19;99520.56;10334448;28;20139;-50
2023/08/29 04:22:49;;;;;;;1.67;1.00;;;;;;;17.18;70.48;99518.44;10348042;28;20041;-49
2023/08/29 04:27:50;;;;;;;2.13;0.82;;;;;;;17.03;70.96;99518.41;10331085;28;20087;-50
2023/08/29 04:32:51;;;;;;;4.45;1.52;;;;;;;17.01;71.03;99513.22;10352452;28;20060;-50
2023/08/29 04:37:54;;;;;;;2.30;1.48;;;;;;;17.03;71.74;99515.72;10347661;28;20056;-50
2023/08/29 04:42:55;;;;;;;2.60;1.10;;;;;;;17.06;72.80;99509.97;10345278;28;20080;-50
2023/08/29 04:47:57;;;;;;;2.00;1.10;;;;;;;17.23;72.43;99513.31;10350811;28;20049;-49
2023/08/29 04:52:59;;;;;;;3.95;1.35;;;;;;;17.30;72.07;99517.78;10351447;28;20053;-51
2023/08/29 04:58:00;;;;;;;1.77;1.20;;;;;;;17.37;71.39;99509.81;10346961;28;20242;-52
2023/08/29 05:03:04;;;;;;;5.80;2.42;;;;;;;17.32;72.62;99520.28;10329686;28;20053;-49
2023/08/29 05:08:05;;;;;;;3.38;1.70;;;;;;;17.37;72.27;99517.03;10317203;28;20092;-50
2023/08/29 05:13:07;;;;;;;2.65;1.42;;;;;;;17.42;72.15;99511.94;10330235;28;20053;-50
2023/08/29 05:18:09;;;;;;;2.10;1.40;;;;;;;17.38;71.17;99513.31;10336009;28;20206;-50
2023/08/29 05:23:11;;;;;;;1.30;1.20;;;;;;;17.35;73.66;99516.38;10335460;28;20774;-50
2023/08/29 05:28:13;;;;;;;1.63;1.02;;;;;;;17.42;72.48;99507.38;10344162;28;20053;-50
2023/08/29 05:33:14;;;;;;;2.92;1.60;;;;;;;17.41;72.37;99508.38;10340019;28;20405;-50
2023/08/29 05:38:16;;;;;;;2.47;1.50;;;;;;;17.42;72.38;99507.38;10340578;28;20060;-50
2023/08/29 05:43:18;;;;;;;2.72;1.35;;;;;;;17.43;72.48;99506.38;10329347;28;20053;-49
2023/08/29 05:48:21;;;;;;;1.48;0.93;;;;;;;17.49;71.77;99499.41;10342236;28;20132;-49
2023/08/29 05:53:22;;;;;;;1.27;1.10;;;;;;;17.50;72.29;99506.44;10337424;28;20144;-50
2023/08/29 05:58:25;;;;;;;2.88;1.38;;;;;;;17.53;71.51;99508.75;10341188;28;21417;-49
2023/08/29 06:03:27;;;;;;;3.37;1.27;;;;;;;17.51;72.29;99502.75;10341334;28;20052;-49
2023/08/29 06:08:30;;;;;;;2.58;1.65;;;;;;;17.58;72.18;99503.66;10325619;28;20054;-49
2023/08/29 06:13:31;;;;;;;2.15;1.13;;;;;;;17.65;72.36;99493.81;10340355;28;20172;-49
2023/08/29 06:18:33;;;;;;;3.85;1.25;;;;;;;17.64;71.25;99500.22;10312808;28;20438;-49
2023/08/29 06:23:34;;;;;;;2.25;1.45;;;;;;;17.56;71.36;99505.69;10329933;28;20084;-50
2023/08/29 06:28:37;;;;;;;1.75;1.10;;;;;;;17.64;71.92;99507.47;10315593;28;20059;-51
2023/08/29 06:33:40;;;;;;;1.40;0.82;;;;;;;17.60;72.22;99515.06;10322540;28;20092;-49
2023/08/29 06:38:42;;;;;;;2.10;1.35;;;;;;;17.61;71.86;99508.66;10326615;28;20068;-48
2023/08/29 06:43:46;;;;;;;1.77;1.40;;;;;;;17.65;70.89;99518.06;10330317;28;20045;-49
2023/08/29 06:48:48;;;;;;;2.03;1.17;;;;;;;17.67;72.40;99518.69;10328162;28;20050;-50
2023/08/29 06:53:49;;;;;;;1.33;0.98;;;;;;;17.76;71.86;99521.25;10307811;28;21241;-51
2023/08/29 06:58:51;;;;;;;1.90;1.20;;;;;;;17.85;72.59;99522.84;10335348;28;20053;-50
2023/08/29 07:03:52;;;;;;;2.75;1.30;;;;;;;17.92;72.57;99526.47;10317540;28;20751;-50
2023/08/29 07:08:54;;;;;;;2.38;0.88;;;;;;;17.91;71.74;99529.34;10340681;28;20049;-50
2023/08/29 07:13:56;;;;;;;1.48;1.15;;;;;;;17.99;71.61;99538.16;10345119;28;20352;-50
2023/08/29 07:18:58;;;;;;;0.95;0.77;;;;;;;17.97;71.85;99518.66;10348678;28;20825;-50
2023/08/29 07:24:00;;;;;;;1.13;0.93;;;;;;;18.15;71.96;99536.25;10340938;28;20198;-49
2023/08/29 07:29:02;;;;;;;2.58;1.20;;;;;;;18.11;72.17;99518.81;10347259;28;20713;-51
2023/08/29 07:34:03;;;;;;;1.33;0.88;;;;;;;18.25;71.06;99539.47;10331765;28;20425;-53
2023/08/29 07:39:06;;;;;;;2.08;1.40;;;;;;;18.31;71.27;99546.78;10348316;28;20192;-49
2023/08/29 07:44:07;;;;;;;1.60;1.10;;;;;;;18.32;69.65;99544.94;10322068;28;20046;-50
2023/08/29 07:49:14;;;;;;;2.80;0.98;;;;;;;18.40;69.84;99554.75;10345345;28;20049;-49
2023/08/29 07:54:15;;;;;;;2.97;1.35;;;;;;;18.46;69.25;99570.16;10344248;28;24811;-50
2023/08/29 07:59:16;;;;;;;1.63;0.70;;;;;;;18.50;69.41;99574.97;10329957;28;20046;-49
2023/08/29 08:04:18;;;;;;;2.10;0.80;;;;;;;18.61;70.00;99570.09;10332167;28;20065;-53
2023/08/29 08:09:20;;;;;;;2.50;1.13;;;;;;;18.73;69.16;99584.72;10324603;28;20981;-51
2023/08/29 08:14:21;;;;;;;1.77;0.70;;;;;;;18.86;69.59;99589.44;10344924;28;20053;-49
2023/08/29 08:19:23;;;;;;;3.28;1.10;;;;;;;18.95;67.95;99592.84;10340943;28;20045;-50
2023/08/29 08:24:25;;;;;;;4.60;0.90;;;;;;;19.00;67.34;99596.59;10336098;28;20061;-49
2023/08/29 08:29:27;;;;;;;2.80;0.88;;;;;;;19.02;67.72;99591.84;10342345;28;20503;-48
2023/08/29 08:34:29;;;;;;;1.20;1.10;;;;;;;19.07;66.95;99584.00;10340319;28;20052;-51
2023/08/29 08:39:33;;;;;;;1.35;0.80;;;;;;;19.29;66.77;99592.06;10342246;28;20049;-49
2023/08/29 08:44:35;;;;;;;1.50;0.60;;;;;;;19.43;65.77;99593.81;10322149;28;20057;-50
2023/08/29 08:49:38;;;;;;;1.33;0.80;;;;;;;19.55;63.91;99593.28;10340042;28;20104;-49
2023/08/29 08:54:39;;;;;;;3.47;0.90;;;;;;;19.70;64.14;99598.56;10329445;28;20053;-48
2023/08/29 08:59:42;;;;;;;2.13;0.43;;;;;;;19.83;63.04;99603.22;10338303;28;20064;-49
2023/08/29 09:04:43;;;;;;;1.48;0.70;;;;;;;19.90;62.54;99588.69;10338847;28;20049;-49
2023/08/29 09:10:11;;;;;;;4.80;0.85;;;;;;;20.21;62.15;99605.47;10340944;28;20049;-49
2023/08/29 09:15:16;;;;;;;3.35;0.68;;;;;;;20.26;62.10;99603.00;10333092;28;20542;-49
2023/08/29 09:20:18;;;;;;;3.13;0.70;;;;;;;20.29;60.73;99607.97;10335206;28;20108;-49
2023/08/29 09:25:19;;;;;;;2.75;0.80;;;;;;;20.24;60.77;99610.47;10333380;28;20708;-50
2023/08/29 09:30:21;;;;;;;2.88;0.60;;;;;;;20.17;61.20;99615.84;10336350;28;20731;-51
2023/08/29 09:35:25;;;;;;;1.95;0.60;;;;;;;20.23;61.38;99614.19;10318719;28;20056;-50
2023/08/29 09:40:27;;;;;;;2.30;0.70;;;;;;;20.25;60.89;99607.56;10333588;28;21148;-50
2023/08/29 09:45:41;;;;;;;2.67;0.93;;;;;;;20.57;60.74;99607.84;10325109;28;20050;-52
2023/08/29 09:50:43;;;;;;;2.40;0.60;;;;;;;20.79;59.39;99602.28;10292455;28;20053;-50
2023/08/29 09:55:48;;;;;;;1.50;0.30;;;;;;;20.71;58.88;99595.22;10336227;28;20064;-50
2023/08/29 10:00:51;;;;;;;1.98;0.50;;;;;;;20.64;59.52;99599.75;10318909;28;20045;-50
2023/08/29 10:05:55;;;;;;;;;;;;;;;20.40;59.64;99603.84;10334241;28;20328;-50
2023/08/29 10:10:59;;;;;;;;;;;;;;;20.32;59.74;99594.06;10339009;28;19964;-50
2023/08/29 10:16:03;;;;;;;1.10;0.57;;;;;;;20.29;60.59;99589.06;10328661;28;19929;-54
2023/08/29 10:21:05;;;;;;;5.03;1.00;;;;;;;20.21;61.10;99586.56;10330833;28;20140;-51
2023/08/29 10:26:06;;;;;;;1.27;0.68;;;;;;;20.25;61.57;99591.34;10293205;28;20305;-49
2023/08/29 10:31:09;;;;;;;2.95;0.90;;;;;;;20.16;60.92;99580.91;10320684;28;20061;-49
2023/08/29 10:36:10;;;;;;;1.85;0.93;;;;;;;20.22;60.94;99586.34;10302686;28;20041;-52
2023/08/29 10:41:12;;;;;;;1.70;0.82;;;;;;;20.07;60.82;99578.41;10299602;28;20564;-49
2023/08/29 10:46:14;;;;;;;1.30;0.88;;;;;;;20.04;62.34;99580.66;10334349;28;20544;-50
2023/08/29 10:51:22;;;;;;;1.95;0.77;;;;;;;19.97;63.58;99564.44;10332052;28;20053;-50
2023/08/29 10:56:27;;;;;;;2.70;1.25;;;;;;;20.08;64.02;99571.13;10339394;28;20080;-49
2023/08/29 11:01:30;;;;;;;4.60;0.93;;;;;;;20.15;63.89;99574.69;10341229;28;20052;-50
2023/08/29 11:07:05;;;;;;;2.00;0.60;;;;;;;20.21;62.61;99575.75;10344165;28;20049;-50
2023/08/29 11:12:06;;;;;;;;;;;;;;;20.16;59.16;99565.53;10290140;28;20208;-51
2023/08/29 11:17:22;;;;;;;1.52;0.32;;;;;;;20.19;59.91;99553.50;10331726;28;19932;-54
2023/08/29 11:22:29;;;;;;;0.88;0.32;;;;;;;20.27;60.17;99559.53;10341197;28;20775;-49
2023/08/29 11:27:37;;;;;;;2.78;0.65;;;;;;;20.28;58.50;99557.66;10338551;28;20155;-54
2023/08/29 11:32:38;;;;;;;0.70;0.32;;;;;;;20.27;60.08;99556.84;10341050;28;20064;-49
2023/08/29 11:37:40;;;;;;;2.53;0.68;;;;;;;20.28;60.81;99544.16;10339377;28;20132;-50
2023/08/29 11:42:43;;;;;;;1.10;0.40;;;;;;;20.42;59.83;99551.25;10323578;28;20824;-51
2023/08/29 11:48:04;;;;;;;1.70;0.43;;;;;;;20.49;59.25;99544.00;10328933;28;20134;-50
2023/08/29 11:53:06;;;;;;;1.98;0.52;;;;;;;20.39;57.09;99543.56;10336091;28;20053;-50
2023/08/29 11:58:08;;;;;;;3.25;0.65;;;;;;;20.43;57.36;99541.28;10342388;28;20068;-49
2023/08/29 12:03:10;;;;;;;2.45;0.60;;;;;;;20.37;57.90;99542.94;10336130;28;20095;-50
2023/08/29 12:08:12;;;;;;;1.75;0.55;;;;;;;20.47;58.14;99546.06;10339098;28;20763;-50
2023/08/29 12:13:14;;;;;;;1.45;0.38;;;;;;;20.42;57.25;99548.56;10328233;28;20524;-54
2023/08/29 12:18:24;;;;;;;3.35;0.55;;;;;;;20.48;57.02;99546.91;10341790;28;20053;-50
2023/08/29 12:23:27;;;;;;;1.80;0.30;;;;;;;20.37;57.48;99551.06;10338083;28;20054;-50
2023/08/29 12:28:28;;;;;;;1.35;0.45;;;;;;;20.40;57.77;99545.25;10333621;28;20128;-50
2023/08/29 12:33:30;;;;;;;2.42;0.70;;;;;;;20.32;57.43;99558.94;10340203;28;20599;-49
2023/08/29 12:38:31;;;;;;;1.52;0.70;;;;;;;20.37;57.21;99550.22;10311622;28;20512;-50
2023/08/29 12:43:33;;;;;;;2.03;0.47;;;;;;;20.28;56.90;99552.25;10296755;28;20061;-50
2023/08/29 12:48:34;;;;;;;2.95;0.60;;;;;;;20.22;56.88;99542.28;10340743;28;20061;-51
2023/08/29 12:53:36;;;;;;;2.15;0.45;;;;;;;20.30;56.53;99539.41;10321457;28;20136;-58
2023/08/29 12:58:37;;;;;;;1.75;0.45;;;;;;;20.26;56.26;99511.13;10313852;28;20167;-51
2023/08/29 13:03:39;;;;;;;1.75;0.40;;;;;;;20.36;56.98;99516.94;10337700;28;20053;-50
2023/08/29 13:08:40;;;;;;;1.63;0.50;;;;;;;20.49;55.93;99519.69;10341454;28;20055;-49
2023/08/29 13:13:42;;;;;;;1.13;0.30;;;;;;;20.27;55.87;99507.38;10340003;28;20115;-50
2023/08/29 13:18:44;;;;;;;0.98;0.55;;;;;;;20.32;56.03;99531.91;10343994;28;20167;-52
2023/08/29 13:23:45;;;;;;;4.43;0.73;;;;;;;20.12;56.09;99516.47;10333705;28;20057;-51
2023/08/29 13:28:47;;;;;;;2.03;0.35;;;;;;;20.27;57.40;99529.00;10324416;28;20173;-51
2023/08/29 13:33:51;;;;;;;;;;;;;;;20.28;56.05;99495.50;10341704;28;20053;-51
2023/08/29 13:38:52;;;;;;;0.95;0.60;;;;;;;20.56;56.33;99526.97;10329628;28;19936;-51
2023/08/29 13:43:54;;;;;;;2.95;0.98;;;;;;;20.52;57.11;99525.69;10333608;28;21047;-50
2023/08/29 13:48:56;;;;;;;4.07;0.80;;;;;;;20.58;59.93;99516.75;10318074;28;20552;-50
2023/08/29 13:53:57;;;;;;;3.65;0.90;;;;;;;20.58;59.22;99524.88;10328069;28;20097;-50
2023/08/29 13:59:02;;;;;;;5.95;0.90;;;;;;;20.71;59.79;99524.91;10332974;28;20555;-49
2023/08/29 14:04:04;;;;;;;2.05;0.90;;;;;;;20.85;58.82;99531.16;10328198;28;20049;-50
2023/08/29 14:09:06;;;;;;;3.85;0.85;;;;;;;21.02;57.84;99524.28;10305202;28;20048;-51
2023/08/29 14:14:07;;;;;;;3.63;1.10;;;;;;;21.22;57.45;99514.47;10337011;28;20057;-50
2023/08/29 14:19:09;;;;;;;2.25;0.90;;;;;;;21.18;57.56;99508.63;10316124;28;20049;-49
2023/08/29 14:24:11;;;;;;;1.33;0.60;;;;;;;21.30;56.63;99511.53;10326701;28;20064;-50
2023/08/29 14:29:13;;;;;;;1.35;0.75;;;;;;;21.45;56.07;99505.88;10321849;28;20045;-47
2023/08/29 14:34:14;;;;;;;1.75;0.65;;;;;;;21.54;56.34;99508.19;10328914;28;20182;-47
2023/08/29 14:39:16;;;;;;;2.60;0.70;;;;;;;21.63;57.11;99506.06;10328052;28;20385;-48
2023/08/29 14:44:18;;;;;;;1.65;0.57;;;;;;;21.50;55.60;99500.69;10325153;28;20049;-47
2023/08/29 14:49:20;;;;;;;0.93;0.35;;;;;;;21.44;56.29;99502.34;10288250;28;20541;-48
2023/08/29 14:54:21;;;;;;;1.15;0.60;;;;;;;21.33;57.32;99505.69;10319596;28;20060;-48
2023/08/29 14:59:23;;;;;;;2.20;0.70;;;;;;;21.31;58.46;99507.78;10330144;28;20053;-49
2023/08/29 15:04:24;;;;;;;1.35;1.10;;;;;;;20.95;62.75;99530.75;10323832;28;20057;-52
2023/08/29 15:09:26;;;;;;;3.05;1.10;;;;;;;20.82;65.95;99537.81;10312247;28;20064;-51
2023/08/29 15:14:28;;;;;;;2.38;0.80;;;;;;;20.34;66.14;99540.63;10321998;28;20889;-51
2023/08/29 15:19:30;;;;;;;1.90;0.73;;;;;;;20.29;69.44;99535.03;10326510;28;20107;-51
2023/08/29 15:24:31;;;;;;;3.00;0.80;;;;;;;20.04;69.73;99500.47;10316254;28;20087;-51
2023/08/29 15:29:32;;;;;;;2.97;1.30;;;;;;;20.26;70.87;99535.44;10308054;28;20051;-51
2023/08/29 15:34:35;;;;;;;2.03;1.00;;;;;;;20.28;72.66;99536.03;10331402;28;20057;-51
2023/08/29 15:39:36;;;;;;;2.08;1.00;;;;;;;20.23;71.40;99528.56;10331870;28;20054;-50
2023/08/29 15:44:38;;;;;;;3.33;1.15;;;;;;;20.20;72.25;99537.06;10327168;28;20053;-51
2023/08/29 15:49:39;;;;;;;2.58;0.75;;;;;;;20.16;73.13;99532.28;10325055;28;20053;-50
2023/08/29 15:54:42;;;;;;;3.05;1.10;;;;;;;20.10;72.85;99529.38;10324123;28;20049;-51
2023/08/29 15:59:44;;;;;;;2.23;1.10;;;;;;;20.10;74.13;99528.53;10317415;28;20142;-51
2023/08/29 16:04:45;;;;;;;2.75;1.10;;;;;;;19.98;72.13;99536.38;10299446;28;20069;-50
2023/08/29 16:09:47;;;;;;;1.70;1.30;;;;;;;19.89;73.94;99527.66;10311897;28;20053;-51
2023/08/29 16:14:48;;;;;;;2.17;1.35;;;;;;;19.89;73.35;99526.78;10330246;28;20548;-51
2023/08/29 16:19:50;;;;;;;1.52;0.63;;;;;;;19.76;71.60;99528.38;10320045;28;20053;-51
2023/08/29 16:24:55;;;;;;;1.02;0.70;;;;;;;19.72;72.28;99529.81;10308944;28;20184;-51
2023/08/29 16:29:56;;;;;;;1.73;0.63;;;;;;;19.64;71.17;99524.59;10328189;28;20049;-50
2023/08/29 16:34:58;;;;;;;3.65;1.23;;;;;;;19.64;71.92;99530.00;10315213;28;21857;-51
2023/08/29 16:40:00;;;;;;;1.48;0.85;;;;;;;19.68;71.65;99527.72;10328386;28;20045;-50
2023/08/29 16:45:03;;;;;;;1.50;1.08;;;;;;;19.62;71.37;99513.13;10331375;28;20081;-50
2023/08/29 16:50:05;;;;;;;1.75;1.13;;;;;;;19.71;71.98;99536.25;10322469;28;21130;-52
2023/08/29 16:55:08;;;;;;;2.20;1.52;;;;;;;19.59;70.64;99524.34;10328107;28;20691;-51
2023/08/29 17:00:10;;;;;;;3.35;2.42;;;;;;;19.66;70.51;99543.28;10328657;28;21257;-52
2023/08/29 17:05:11;;;;;;;1.75;1.10;;;;;;;19.64;70.92;99535.38;10326670;28;20052;-52
2023/08/29 17:10:14;;;;;;;3.65;2.53;;;;;;;19.63;70.89;99543.69;10315392;28;20527;-51
2023/08/29 17:15:15;;;;;;;4.90;3.03;;;;;;;19.61;71.29;99535.78;10326892;28;20392;-50
2023/08/29 17:20:17;;;;;;;1.98;1.77;;;;;;;19.55;71.04;99525.81;10308673;28;20057;-52
2023/08/29 17:25:18;;;;;;;2.03;1.40;;;;;;;19.55;70.42;99537.41;10321576;28;20093;-51
2023/08/29 17:30:20;;;;;;;2.63;1.17;;;;;;;19.53;71.46;99538.63;10310693;28;20135;-51
2023/08/29 17:35:22;;;;;;;2.95;1.10;;;;;;;19.52;70.46;99542.41;10326356;28;20422;-51
2023/08/29 17:40:23;;;;;;;1.88;0.90;;;;;;;19.49;70.59;99553.59;10327608;28;20061;-57
2023/08/29 17:45:25;;;;;;;1.85;1.15;;;;;;;19.46;71.15;99554.00;10325599;28;20065;-50
2023/08/29 17:50:26;;;;;;;1.73;1.20;;;;;;;19.38;71.65;99553.09;10330270;28;20061;-51
2023/08/29 17:55:28;;;;;;;1.50;0.90;;;;;;;19.40;70.78;99561.00;10327503;28;20128;-51
2023/08/29 18:00:29;;;;;;;2.15;0.75;;;;;;;19.36;70.60;99555.16;10325324;28;20696;-50
2023/08/29 18:05:33;;;;;;;1.70;0.90;;;;;;;19.36;70.30;99563.25;10313499;28;20053;-52
2023/08/29 18:10:36;;;;;;;0.93;0.75;;;;;;;19.33;69.62;99560.94;10313639;28;20049;-51
2023/08/29 18:15:39;;;;;;;2.45;0.93;;;;;;;19.32;70.44;99559.31;10325648;28;20057;-52
2023/08/29 18:20:40;;;;;;;1.00;0.90;;;;;;;19.28;70.44;99563.41;10323283;28;20067;-51
2023/08/29 18:25:42;;;;;;;1.20;0.70;;;;;;;19.27;70.53;99563.63;10330396;28;20303;-51
2023/08/29 18:30:43;;;;;;;1.52;1.00;;;;;;;19.23;69.79;99565.84;10321116;28;20116;-58
2023/08/29 18:35:47;;;;;;;1.33;1.23;;;;;;;19.00;69.96;99533.75;10331549;28;20064;-52
2023/08/29 18:40:50;;;;;;;2.28;1.23;;;;;;;19.01;70.54;99555.13;10320619;28;20536;-51
2023/08/29 18:45:51;;;;;;;2.08;0.75;;;;;;;19.12;70.52;99582.59;10306234;28;20057;-52
2023/08/29 18:50:53;;;;;;;1.13;0.70;;;;;;;19.10;70.29;99576.56;10307380;28;20057;-52
2023/08/29 18:55:54;;;;;;;1.60;1.00;;;;;;;19.08;70.52;99585.69;10326439;28;20244;-52
2023/08/29 19:00:56;;;;;;;4.20;2.33;;;;;;;19.05;70.92;99587.91;10304757;28;20151;-50
2023/08/29 19:05:58;;;;;;;2.88;1.55;;;;;;;19.03;71.73;99587.28;10329849;28;20743;-53
2023/08/29 19:11:06;;;;;;;2.20;1.90;;;;;;;19.01;71.99;99589.34;10323276;28;20053;-50
2023/08/29 19:16:08;;;;;;;1.85;1.10;;;;;;;18.78;72.16;99557.16;10328023;28;20137;-52
2023/08/29 19:21:10;;;;;;;1.73;1.05;;;;;;;18.95;71.84;99582.06;10335356;28;20061;-52
2023/08/29 19:26:11;;;;;;;1.83;1.73;;;;;;;18.94;72.01;99589.28;10310298;28;20062;-51
2023/08/29 19:31:13;;;;;;;2.33;1.75;;;;;;;18.90;71.96;99593.44;10332133;28;20049;-51
2023/08/29 19:36:16;;;;;;;2.90;1.60;;;;;;;18.86;72.27;99592.13;10315129;28;20053;-51
2023/08/29 19:41:18;;;;;;;1.90;1.42;;;;;;;18.84;71.29;99591.44;10330161;28;21001;-51
2023/08/29 19:46:20;;;;;;;2.28;1.45;;;;;;;18.73;70.71;99582.88;10331162;28;20147;-51
2023/08/29 19:51:21;;;;;;;2.53;1.33;;;;;;;18.75;70.73;99587.22;10304715;28;20160;-51
2023/08/29 19:56:24;;;;;;;2.15;1.10;;;;;;;18.69;70.97;99586.13;10329353;28;20127;-51
2023/08/29 20:01:26;;;;;;;1.53;1.10;;;;;;;18.67;70.43;99591.69;10329832;28;20473;-51
2023/08/29 20:06:27;;;;;;;2.03;1.55;;;;;;;18.65;70.01;99593.75;10313887;28;20149;-51
2023/08/29 20:11:29;;;;;;;2.17;1.15;;;;;;;18.63;70.52;99590.44;10324130;28;20064;-52
2023/08/29 20:16:31;;;;;;;2.25;1.67;;;;;;;18.54;72.33;99594.28;10335812;28;20077;-54
2023/08/29 20:21:32;;;;;;;1.42;1.30;;;;;;;18.50;72.13;99590.31;10326185;28;20050;-52
2023/08/29 20:26:34;;;;;;;1.75;1.10;;;;;;;18.33;72.60;99569.00;10328076;28;20320;-52
2023/08/29 20:31:36;;;;;;;2.92;1.65;;;;;;;18.42;72.54;99585.03;10334682;28;20546;-51
2023/08/29 20:36:37;;;;;;;2.17;1.63;;;;;;;18.33;73.42;99563.59;10325414;28;20783;-50
2023/08/29 20:41:38;;;;;;;2.33;1.55;;;;;;;18.38;73.49;99574.63;10339098;28;20525;-51
2023/08/29 20:46:40;;;;;;;2.25;1.95;;;;;;;18.37;73.89;99575.66;10319271;28;20057;-50
2023/08/29 20:51:41;;;;;;;2.22;1.70;;;;;;;18.34;74.20;99575.19;10336400;28;20545;-51
2023/08/29 20:56:45;;;;;;;2.03;1.80;;;;;;;18.31;74.03;99573.72;10339731;28;20058;-53
2023/08/29 21:01:46;;;;;;;2.90;2.25;;;;;;;18.29;74.14;99573.09;10340506;28;20050;-51
2023/08/29 21:06:47;;;;;;;2.95;2.65;;;;;;;18.28;74.24;99563.31;10339557;28;20805;-51
2023/08/29 21:11:50;;;;;;;2.70;2.20;;;;;;;18.27;73.92;99556.28;10340104;28;20124;-50
2023/08/29 21:16:51;;;;;;;3.17;2.88;;;;;;;18.25;73.98;99552.94;10315619;28;20623;-55
2023/08/29 21:21:53;;;;;;;3.45;2.78;;;;;;;18.22;74.52;99530.94;10332868;28;20053;-51
2023/08/29 21:26:54;;;;;;;3.08;2.75;;;;;;;18.21;74.26;99538.19;10334616;28;20096;-55
2023/08/29 21:31:56;;;;;;;3.60;2.60;;;;;;;18.18;74.49;99539.41;10335827;28;20062;-56
2023/08/29 21:36:57;;;;;;;3.83;2.90;;;;;;;18.17;74.90;99545.81;10329288;28;20131;-49
2023/08/29 21:41:58;;;;;;;4.05;3.28;;;;;;;18.13;74.88;99539.13;10341397;28;20180;-50
2023/08/29 21:47:00;;;;;;;3.30;3.00;;;;;;;18.12;74.76;99544.69;10324802;28;20042;-51
2023/08/29 21:52:02;;;;;;;3.58;2.88;;;;;;;18.09;75.98;99534.31;10334401;28;20046;-52
2023/08/29 21:57:04;;;;;;;4.18;3.10;;;;;;;18.05;76.04;99523.09;10333867;28;20045;-50
2023/08/29 22:02:06;;;;;;;4.47;2.60;;;;;;;17.92;75.91;99491.47;10334852;28;20056;-51
2023/08/29 22:07:08;;;;;;;2.92;2.63;;;;;;;17.96;76.07;99503.53;10337239;28;20188;-50
2023/08/29 22:12:09;;;;;;;3.63;3.15;;;;;;;17.93;75.93;99506.59;10337483;28;20057;-52
2023/08/29 22:17:11;;;;;;;4.38;2.80;;;;;;;17.91;75.74;99497.03;10314562;28;20054;-51
2023/08/29 22:22:12;;;;;;;4.22;2.83;;;;;;;17.88;76.44;99498.22;10332398;28;20053;-52
2023/08/29 22:27:15;;;;;;;4.78;3.33;;;;;;;17.88;76.78;99497.38;10320268;28;20427;-51
2023/08/29 22:32:16;;;;;;;3.58;2.70;;;;;;;17.81;77.42;99489.25;10321766;28;20183;-51
2023/08/29 22:37:18;;;;;;;3.53;3.22;;;;;;;17.80;77.60;99492.94;10323804;28;20477;-51
2023/08/29 22:42:19;;;;;;;3.08;2.50;;;;;;;17.77;77.71;99496.03;10337899;28;20068;-51
2023/08/29 22:47:21;;;;;;;4.22;3.10;;;;;;;17.74;77.49;99496.41;10349472;28;20309;-51
2023/08/29 22:52:23;;;;;;;4.55;2.80;;;;;;;17.70;77.66;99490.56;10350562;28;21241;-51
2023/08/29 22:57:24;;;;;;;4.22;2.90;;;;;;;17.67;77.79;99494.47;10348867;28;20130;-51
2023/08/29 23:02:26;;;;;;;3.97;3.55;;;;;;;17.65;78.05;99493.81;10338159;28;20097;-51
2023/08/29 23:07:28;;;;;;;3.50;3.00;;;;;;;17.63;78.10;99498.53;10325564;28;20045;-49
2023/08/29 23:12:29;;;;;;;3.42;2.63;;;;;;;17.43;78.43;99454.41;10349696;28;20053;-51
2023/08/29 23:17:31;;;;;;;3.15;2.83;;;;;;;17.63;78.42;99490.47;10346801;28;20056;-50
2023/08/29 23:22:32;;;;;;;3.53;2.85;;;;;;;17.61;78.62;99491.66;10346885;28;20733;-51
2023/08/29 23:27:34;;;;;;;2.83;2.53;;;;;;;17.61;78.84;99492.53;10344253;28;20172;-52